Carthage, Arkansas
Current Conditions -  °F | °C
As of 5:56 PM on Monday 24 Nov 2014 (Local Time) from KADF Reporting Station
Clear Clear  
Wind Chill: 47°   Ceiling: Unl
Heat Index: 47°   Visibility: 10mi
Dew Point: 41°   Wind: 3mph
Humidity: 80%   Direction: 280°W
Pressure: 30.02"   Gusts: NA
Location:  34.08°N, 92.56°W
Report Text: KADF 242356Z AUTO 28003KT 10SM CLR 08/05 A3002 RMK AO2 53018 T00830050 10155 20083 SLP181
Loading
Personal Weather Stations






























Interactive Weather Map New forecast layout! Learn more

10-Day Weather Forecast

Advertisements
Track Severe Weather on mobile